createdAt,value
2022-08-28T00:01:04.506Z,100861.78
2022-08-28T00:03:34.353Z,100861.91
2022-08-28T00:06:04.172Z,100860.19
2022-08-28T00:08:36.509Z,100858.75
2022-08-28T00:11:06.309Z,100861.41
2022-08-28T00:13:37.432Z,100857.25
2022-08-28T00:16:07.930Z,100859.22
2022-08-28T00:18:37.704Z,100855.81
2022-08-28T00:21:07.890Z,100862.59
2022-08-28T00:23:42.313Z,100860.06
2022-08-28T00:26:33.640Z,100864.56
2022-08-28T00:29:01.187Z,100864.13
2022-08-28T00:31:30.904Z,100873.34
2022-08-28T00:34:02.694Z,100862.78
2022-08-28T00:36:32.757Z,100867.66
2022-08-28T00:39:05.063Z,100866.03
2022-08-28T00:41:38.836Z,100876.00
2022-08-28T00:44:15.444Z,100875.41
2022-08-28T00:46:47.398Z,100873.19
2022-08-28T00:49:19.134Z,100868.94
2022-08-28T00:52:02.053Z,100875.47
2022-08-28T00:54:35.412Z,100866.84
2022-08-28T00:57:06.716Z,100871.56
2022-08-28T00:59:36.599Z,100873.72
2022-08-28T01:02:07.147Z,100875.53
2022-08-28T01:04:37.231Z,100872.13
2022-08-28T01:07:09.366Z,100865.53
2022-08-28T01:09:45.019Z,100879.88
2022-08-28T01:12:20.109Z,100874.88
2022-08-28T01:14:52.243Z,100877.88
2022-08-28T01:17:24.470Z,100882.25
2022-08-28T01:19:58.434Z,100878.97
2022-08-28T01:22:34.107Z,100870.94
2022-08-28T01:25:09.880Z,100879.28
2022-08-28T01:27:41.951Z,100883.91
2022-08-28T01:30:13.298Z,100878.69
2022-08-28T01:32:45.130Z,100875.25
2022-08-28T01:35:18.821Z,100881.69
2022-08-28T01:37:48.535Z,100885.66
2022-08-28T01:40:27.655Z,100886.72
2022-08-28T01:42:57.520Z,100893.91
2022-08-28T01:45:27.450Z,100895.91
2022-08-28T01:47:58.802Z,100887.91
2022-08-28T01:50:28.827Z,100891.22
2022-08-28T01:52:58.482Z,100893.88
2022-08-28T01:55:30.913Z,100889.88
2022-08-28T01:58:01.293Z,100893.50
2022-08-28T02:00:31.671Z,100886.66
2022-08-28T02:03:02.128Z,100888.91
2022-08-28T02:05:33.761Z,100891.69
2022-08-28T02:08:05.573Z,100891.81
2022-08-28T02:10:39.741Z,100894.78
2022-08-28T02:13:11.673Z,100889.06
2022-08-28T02:15:42.870Z,100888.94
2022-08-28T02:18:14.606Z,100899.75
2022-08-28T02:20:44.609Z,100890.13
2022-08-28T02:23:14.292Z,100901.66
2022-08-28T02:25:46.640Z,100902.72
2022-08-28T02:28:19.547Z,100904.84
2022-08-28T02:30:49.284Z,100904.13
2022-08-28T02:33:19.029Z,100902.31
2022-08-28T02:35:49.409Z,100904.22
2022-08-28T02:38:19.550Z,100912.56
2022-08-28T02:40:52.848Z,100914.59
2022-08-28T02:43:22.479Z,100911.94
2022-08-28T02:45:52.276Z,100912.34
2022-08-28T02:48:22.056Z,100914.38
2022-08-28T02:50:51.771Z,100919.06
2022-08-28T02:53:22.568Z,100927.06
2022-08-28T02:55:54.826Z,100922.69
2022-08-28T02:58:26.810Z,100915.09
2022-08-28T03:00:56.927Z,100918.00
2022-08-28T03:03:31.091Z,100918.97
2022-08-28T03:06:00.877Z,100911.44
2022-08-28T03:08:32.023Z,100911.75
2022-08-28T03:11:04.308Z,100908.44
2022-08-28T03:13:34.841Z,100915.16
2022-08-28T03:16:05.114Z,100910.66
2022-08-28T03:18:35.680Z,100912.72
2022-08-28T03:21:05.339Z,100910.13
2022-08-28T03:23:35.016Z,100906.53
2022-08-28T03:26:09.950Z,100909.38
2022-08-28T03:28:42.772Z,100907.03
2022-08-28T03:31:14.257Z,100909.03
2022-08-28T03:33:44.648Z,100913.53
2022-08-28T03:36:16.362Z,100911.81
2022-08-28T03:38:46.159Z,100910.28
2022-08-28T03:41:19.856Z,100917.56
2022-08-28T03:43:49.704Z,100909.88
2022-08-28T03:46:21.329Z,100906.34
2022-08-28T03:48:51.063Z,100910.50
2022-08-28T03:51:26.293Z,100913.47
2022-08-28T03:53:59.504Z,100915.22
2022-08-28T03:56:33.787Z,100919.69
2022-08-28T03:59:05.259Z,100907.50
2022-08-28T04:01:38.234Z,100909.09
2022-08-28T04:04:08.147Z,100915.38
2022-08-28T04:06:37.922Z,100917.09
2022-08-28T04:09:08.185Z,100917.22
2022-08-28T04:11:43.570Z,100916.47
2022-08-28T04:14:14.341Z,100918.16
2022-08-28T04:16:44.254Z,100923.38
2022-08-28T04:19:14.083Z,100931.59
2022-08-28T04:21:44.097Z,100927.97
2022-08-28T04:24:14.368Z,100937.78
2022-08-28T04:26:47.942Z,100938.63
2022-08-28T04:29:17.814Z,100939.50
2022-08-28T04:31:47.750Z,100946.41
2022-08-28T04:34:18.021Z,100943.75
2022-08-28T04:36:48.060Z,100952.72
2022-08-28T04:39:17.682Z,100940.25
2022-08-28T04:41:50.318Z,100942.91
2022-08-28T04:44:20.047Z,100938.44
2022-08-28T04:46:49.847Z,100944.72
2022-08-28T04:49:19.536Z,100951.13
2022-08-28T04:51:49.305Z,100953.78
2022-08-28T04:54:19.020Z,100954.84
2022-08-28T04:56:51.968Z,100958.38
2022-08-28T04:59:21.733Z,100954.84
2022-08-28T05:01:51.927Z,100963.88
2022-08-28T05:04:21.718Z,100967.63
2022-08-28T05:06:51.463Z,100962.91
2022-08-28T05:09:22.588Z,100966.53
2022-08-28T05:11:55.291Z,100971.34
2022-08-28T05:14:25.064Z,100969.63
2022-08-28T05:16:57.644Z,100974.06
2022-08-28T05:19:28.504Z,100974.97
2022-08-28T05:21:58.368Z,100980.28
2022-08-28T05:24:28.116Z,100980.09
2022-08-28T05:27:00.671Z,100989.78
2022-08-28T05:29:30.312Z,100990.00
2022-08-28T05:32:00.040Z,100993.53
2022-08-28T05:34:29.876Z,100988.94
2022-08-28T05:36:59.540Z,100995.75
2022-08-28T05:39:29.291Z,100996.53
2022-08-28T05:42:01.604Z,100990.88
2022-08-28T05:44:31.391Z,100998.03
2022-08-28T05:47:01.149Z,100997.84
2022-08-28T05:49:31.037Z,101001.06
2022-08-28T05:52:00.736Z,101004.56
2022-08-28T05:54:30.464Z,100993.72
2022-08-28T05:57:02.923Z,100993.72
2022-08-28T05:59:33.468Z,100997.16
2022-08-28T06:02:04.494Z,100997.16
2022-08-28T06:04:35.613Z,101001.41
2022-08-28T06:07:05.362Z,101000.38
2022-08-28T06:09:35.128Z,101001.22
2022-08-28T06:12:08.100Z,101001.22
2022-08-28T06:14:38.076Z,100998.34
2022-08-28T06:17:08.495Z,101008.06
2022-08-28T06:19:41.558Z,101009.66
2022-08-28T06:22:14.781Z,101018.53
2022-08-28T06:24:44.791Z,101021.94
2022-08-28T06:27:17.040Z,101016.41
2022-08-28T06:29:47.259Z,101018.22
2022-08-28T06:32:16.988Z,101019.91
2022-08-28T06:34:46.665Z,101022.59
2022-08-28T06:37:16.313Z,101024.41
2022-08-28T06:39:45.991Z,101023.44
2022-08-28T06:42:18.303Z,101032.00
2022-08-28T06:44:48.035Z,101038.09
2022-08-28T06:47:17.803Z,101025.97
2022-08-28T06:49:47.431Z,101028.34
2022-08-28T06:52:17.070Z,101034.44
2022-08-28T06:54:55.664Z,101047.56
2022-08-28T06:57:28.477Z,101037.44
2022-08-28T06:59:58.583Z,101031.03
2022-08-28T07:02:28.633Z,101033.28
2022-08-28T07:04:58.286Z,101033.97
2022-08-28T07:07:31.312Z,101033.97
2022-08-28T07:10:02.074Z,101027.66
2022-08-28T07:12:34.375Z,101037.25
2022-08-28T07:15:04.954Z,101043.47
2022-08-28T07:17:34.651Z,101044.41
2022-08-28T07:20:04.836Z,101044.97
2022-08-28T07:22:34.542Z,101041.34
2022-08-28T07:25:04.644Z,101042.38
2022-08-28T07:27:37.138Z,101051.34
2022-08-28T07:30:10.154Z,101044.19
2022-08-28T07:32:39.901Z,101050.31
2022-08-28T07:35:10.538Z,101047.72
2022-08-28T07:37:40.958Z,101054.88
2022-08-28T07:40:12.687Z,101047.72
2022-08-28T07:42:57.186Z,101047.84
2022-08-28T07:45:27.013Z,101043.06
2022-08-28T07:47:57.600Z,101052.47
2022-08-28T07:50:27.339Z,101048.31
2022-08-28T07:52:57.793Z,101058.53
2022-08-28T07:55:29.781Z,101066.16
2022-08-28T07:58:02.334Z,101061.13
2022-08-28T08:00:32.093Z,101058.78
2022-08-28T08:03:01.803Z,101072.56
2022-08-28T08:05:31.595Z,101064.03
2022-08-28T08:08:01.444Z,101066.81
2022-08-28T08:10:34.327Z,101071.31
2022-08-28T08:13:07.176Z,101064.22
2022-08-28T08:15:37.553Z,101071.91
2022-08-28T08:18:07.687Z,101064.81
2022-08-28T08:20:37.376Z,101059.25
2022-08-28T08:23:07.726Z,101059.56
2022-08-28T08:25:38.430Z,101066.06
2022-08-28T08:28:11.988Z,101070.59
2022-08-28T08:30:42.923Z,101065.97
2022-08-28T08:33:13.789Z,101066.78
2022-08-28T08:35:45.193Z,101070.16
2022-08-28T08:38:16.179Z,101062.28
2022-08-28T08:40:49.848Z,101070.84
2022-08-28T08:43:24.331Z,101068.94
2022-08-28T08:45:55.249Z,101071.91
2022-08-28T08:48:29.945Z,101072.25
2022-08-28T08:51:04.436Z,101073.59
2022-08-28T08:53:42.856Z,101079.03
2022-08-28T08:56:17.111Z,101082.56
2022-08-28T08:58:53.810Z,101076.09
2022-08-28T09:01:29.198Z,101080.50
2022-08-28T09:04:05.936Z,101074.34
2022-08-28T09:06:45.139Z,101070.72
2022-08-28T09:09:21.772Z,101074.63
2022-08-28T09:11:57.419Z,101075.09
2022-08-28T09:14:39.850Z,101069.97
2022-08-28T09:17:11.084Z,101063.66
2022-08-28T09:19:42.497Z,101067.19
2022-08-28T09:22:13.139Z,101072.41
2022-08-28T09:24:45.512Z,101074.84
2022-08-28T09:27:26.810Z,101077.88
2022-08-28T09:30:07.812Z,101075.13
2022-08-28T09:32:41.895Z,101085.00
2022-08-28T09:35:19.221Z,101074.38
2022-08-28T09:37:49.928Z,101077.81
2022-08-28T09:40:24.866Z,101081.47
2022-08-28T09:43:20.398Z,101081.56
2022-08-28T09:46:01.581Z,101077.25
2022-08-28T09:48:39.277Z,101085.25
2022-08-28T09:51:11.428Z,101078.16
2022-08-28T09:53:45.515Z,101080.81
2022-08-28T09:56:19.838Z,101079.03
2022-08-28T09:58:55.055Z,101076.25
2022-08-28T10:01:51.227Z,101076.59
2022-08-28T10:04:39.707Z,101062.94
2022-08-28T10:07:13.949Z,101078.16
2022-08-28T10:10:06.588Z,101076.63
2022-08-28T10:12:46.091Z,101062.91
2022-08-28T10:15:24.914Z,101064.22
2022-08-28T10:18:22.440Z,101061.97
2022-08-28T10:20:58.607Z,101062.06
2022-08-28T10:23:34.540Z,101064.06
2022-08-28T10:32:28.013Z,101067.81
2022-08-28T10:35:06.618Z,101061.91
2022-08-28T10:37:45.668Z,101065.59
2022-08-28T10:40:18.231Z,101062.47
2022-08-28T10:42:51.911Z,101058.69
2022-08-28T10:45:23.861Z,101056.28
2022-08-28T10:47:59.648Z,101067.34
2022-08-28T10:50:34.396Z,101068.81
2022-08-28T10:53:07.186Z,101066.53
2022-08-28T10:55:40.656Z,101059.44
2022-08-28T10:58:24.058Z,101067.81
2022-08-28T11:00:55.748Z,101060.28
2022-08-28T11:03:35.318Z,101056.03
2022-08-28T11:06:12.362Z,101057.34
2022-08-28T11:08:42.474Z,101058.75
2022-08-28T11:11:16.385Z,101060.31
2022-08-28T11:13:59.717Z,101059.88
2022-08-28T11:16:40.519Z,101057.63
2022-08-28T11:19:26.028Z,101059.75
2022-08-28T11:22:00.930Z,101061.59
2022-08-28T11:24:38.723Z,101058.03
2022-08-28T11:27:25.529Z,101069.06
2022-08-28T11:30:36.455Z,101058.88
2022-08-28T11:33:12.573Z,101066.09
2022-08-28T11:35:49.042Z,101063.00
2022-08-28T11:38:48.719Z,101059.56
2022-08-28T11:41:24.319Z,101058.47
2022-08-28T11:43:55.374Z,101061.16
2022-08-28T11:46:35.492Z,101059.44
2022-08-28T11:49:07.374Z,101055.03
2022-08-28T11:52:00.178Z,101059.56
2022-08-28T11:54:49.622Z,101058.59
2022-08-28T11:57:27.972Z,101063.53
2022-08-28T12:00:07.232Z,101062.84
2022-08-28T12:02:56.224Z,101054.03
2022-08-28T12:05:57.289Z,101051.59
2022-08-28T12:09:15.475Z,101053.28
2022-08-28T12:11:59.680Z,101057.22
2022-08-28T12:15:07.730Z,101061.09
2022-08-28T12:18:01.302Z,101050.41
2022-08-28T12:20:53.652Z,101052.88
2022-08-28T12:23:44.860Z,101049.03
2022-08-28T12:26:24.585Z,101038.19
2022-08-28T12:28:57.446Z,101042.69
2022-08-28T12:32:15.038Z,101037.41
2022-08-28T12:35:06.559Z,101036.66
2022-08-28T12:37:52.607Z,101030.28
2022-08-28T12:40:24.784Z,101028.56
2022-08-28T12:42:58.228Z,101028.03
2022-08-28T12:45:38.399Z,101032.16
2022-08-28T12:48:16.160Z,101030.63
2022-08-28T12:50:48.486Z,101026.09
2022-08-28T12:53:20.943Z,101032.31
2022-08-28T12:55:52.231Z,101032.00
2022-08-28T12:58:33.156Z,101030.38
2022-08-28T13:01:07.658Z,101025.41
2022-08-28T13:03:46.400Z,101015.56
2022-08-28T13:06:26.953Z,101028.84
2022-08-28T13:12:56.146Z,101017.63
2022-08-28T13:15:45.774Z,101020.16
2022-08-28T13:18:36.451Z,101018.00
2022-08-28T13:21:39.695Z,101026.25
2022-08-28T13:24:28.879Z,101009.31
2022-08-28T13:27:12.045Z,101014.19
2022-08-28T13:30:04.445Z,101008.22
2022-08-28T13:32:36.098Z,101008.06
2022-08-28T13:35:10.906Z,101009.00
2022-08-28T13:37:48.986Z,101002.31
2022-08-28T13:40:53.383Z,101004.91
2022-08-28T13:43:11.913Z,101004.06
2022-08-28T13:45:44.621Z,101002.50
2022-08-28T13:48:15.679Z,101000.22
2022-08-28T13:50:47.627Z,100998.50
2022-08-28T13:53:22.447Z,100992.13
2022-08-28T13:55:53.154Z,100992.97
2022-08-28T13:58:23.381Z,100992.34
2022-08-28T14:00:53.669Z,100979.09
2022-08-28T14:03:36.606Z,100984.88
2022-08-28T14:06:09.271Z,100984.75
2022-08-28T14:08:43.364Z,100993.91
2022-08-28T14:11:14.147Z,100987.19
2022-08-28T14:13:47.061Z,100989.75
2022-08-28T14:16:25.978Z,100973.09
2022-08-28T14:18:56.363Z,100981.63
2022-08-28T14:21:26.945Z,100980.78
2022-08-28T14:23:59.208Z,100980.97
2022-08-28T14:26:29.564Z,100973.31
2022-08-28T14:29:00.887Z,100975.47
2022-08-28T14:31:30.706Z,100971.09
2022-08-28T14:34:00.816Z,100965.53
2022-08-28T14:36:32.717Z,100969.75
2022-08-28T14:39:06.835Z,100970.06
2022-08-28T14:41:36.965Z,100970.84
2022-08-28T14:44:09.154Z,100971.75
2022-08-28T14:46:39.669Z,100973.06
2022-08-28T14:49:11.659Z,100973.22
2022-08-28T14:51:42.600Z,100971.53
2022-08-28T14:54:16.692Z,100974.91
2022-08-28T14:56:47.875Z,100972.97
2022-08-28T14:59:24.514Z,100968.97
2022-08-28T15:01:55.663Z,100977.59
2022-08-28T15:04:26.785Z,100973.22
2022-08-28T15:06:59.681Z,100963.81
2022-08-28T15:09:32.269Z,100969.75
2022-08-28T15:12:02.063Z,100960.41
2022-08-28T15:14:31.812Z,100965.97
2022-08-28T15:17:01.539Z,100969.34
2022-08-28T15:19:34.699Z,100982.06
2022-08-28T15:22:06.507Z,100972.13
2022-08-28T15:24:39.747Z,100971.75
2022-08-28T15:27:10.624Z,100973.69
2022-08-28T15:29:45.024Z,100971.00
2022-08-28T15:32:15.725Z,100968.94
2022-08-28T15:34:45.536Z,100967.06
2022-08-28T15:37:15.226Z,100969.16
2022-08-28T15:39:59.966Z,100964.50
2022-08-28T15:42:30.095Z,100970.59
2022-08-28T15:45:01.027Z,100979.25
2022-08-28T15:47:30.989Z,100972.91
2022-08-28T15:50:02.000Z,100968.09
2022-08-28T15:52:37.774Z,100964.63
2022-08-28T15:55:11.511Z,100963.94
2022-08-28T15:57:42.304Z,100974.88
2022-08-28T16:00:14.231Z,100962.25
2022-08-28T16:02:44.588Z,100958.81
2022-08-28T16:05:18.792Z,100964.38
2022-08-28T16:07:49.591Z,100954.03
2022-08-28T16:10:23.586Z,100969.66
2022-08-28T16:12:57.638Z,100957.59
2022-08-28T16:15:29.565Z,100968.72
2022-08-28T16:18:03.528Z,100965.47
2022-08-28T16:20:34.697Z,100966.06
2022-08-28T16:23:05.551Z,100957.53
2022-08-28T16:25:39.194Z,100964.78
2022-08-28T16:28:10.613Z,100961.78
2022-08-28T16:30:43.981Z,100964.63
2022-08-28T16:33:16.535Z,100962.78
2022-08-28T16:35:49.451Z,100955.84
2022-08-28T16:38:26.349Z,100964.94
2022-08-28T16:41:00.453Z,100957.44
2022-08-28T16:43:34.455Z,100966.38
2022-08-28T16:46:07.319Z,100965.69
2022-08-28T16:48:38.562Z,100959.72
2022-08-28T16:51:10.974Z,100959.59
2022-08-28T16:53:43.399Z,100962.97
2022-08-28T16:56:18.958Z,100958.44
2022-08-28T16:58:50.329Z,100958.97
2022-08-28T17:01:25.703Z,100958.97
2022-08-28T17:03:57.709Z,100962.53
2022-08-28T17:06:30.010Z,100965.53
2022-08-28T17:09:01.824Z,100962.28
2022-08-28T17:11:38.461Z,100947.25
2022-08-28T17:14:11.282Z,100954.09
2022-08-28T17:16:42.357Z,100952.50
2022-08-28T17:19:13.105Z,100964.44
2022-08-28T17:21:55.908Z,100957.34
2022-08-28T17:24:26.983Z,100960.63
2022-08-28T17:27:05.159Z,100961.19
2022-08-28T17:29:38.673Z,100965.19
2022-08-28T17:32:09.926Z,100964.19
2022-08-28T17:34:41.591Z,100972.41
2022-08-28T17:37:12.003Z,100968.47
2022-08-28T17:39:42.823Z,100969.03
2022-08-28T17:42:16.626Z,100976.63
2022-08-28T17:44:47.568Z,100979.63
2022-08-28T17:47:18.540Z,100976.38
2022-08-28T17:49:57.448Z,100982.88
2022-08-28T17:52:27.584Z,100976.22
2022-08-28T17:54:57.308Z,100984.00
2022-08-28T17:57:31.566Z,100978.78
2022-08-28T18:00:05.314Z,100984.16
2022-08-28T18:02:43.099Z,100993.34
2022-08-28T18:05:15.256Z,100994.47
2022-08-28T18:07:45.752Z,100994.31
2022-08-28T18:10:16.105Z,100991.75
2022-08-28T18:12:49.027Z,100996.69
2022-08-28T18:15:19.208Z,100996.25
2022-08-28T18:17:50.577Z,101007.69
2022-08-28T18:20:21.775Z,101005.09
2022-08-28T18:22:51.877Z,101012.16
2022-08-28T18:25:34.469Z,101018.44
2022-08-28T18:28:07.206Z,101016.31
2022-08-28T18:30:37.387Z,101015.41
2022-08-28T18:33:07.217Z,101015.94
2022-08-28T18:35:42.075Z,101022.00
2022-08-28T18:38:13.981Z,101019.44
2022-08-28T18:40:44.027Z,101021.53
2022-08-28T18:43:17.750Z,101028.28
2022-08-28T18:45:47.465Z,101033.34
2022-08-28T19:06:14.649Z,101055.81
2022-08-28T19:08:45.964Z,101068.16
2022-08-28T19:14:57.516Z,101075.97
2022-08-28T19:17:27.791Z,101075.09
2022-08-28T19:19:57.531Z,101091.09
2022-08-28T19:22:29.984Z,101089.16
2022-08-28T19:24:59.840Z,101087.50
2022-08-28T19:27:29.567Z,101087.50
2022-08-28T19:29:59.273Z,101084.66
2022-08-28T19:32:29.005Z,101093.28
2022-08-28T19:34:58.624Z,101090.31
2022-08-28T19:37:31.097Z,101097.22
2022-08-28T19:40:00.899Z,101101.31
2022-08-28T19:42:30.790Z,101101.75
2022-08-28T19:45:00.468Z,101105.91
2022-08-28T19:47:35.516Z,101105.41
2022-08-28T19:50:08.346Z,101113.78
2022-08-28T19:52:41.136Z,101114.22
2022-08-28T19:55:11.679Z,101115.50
2022-08-28T19:57:41.316Z,101122.16
2022-08-28T20:00:14.887Z,101121.81
2022-08-28T20:02:44.576Z,101118.84
2022-08-28T20:05:14.766Z,101125.69
2022-08-28T20:07:47.792Z,101127.13
2022-08-28T20:10:18.186Z,101128.59
2022-08-28T20:12:48.585Z,101129.06
2022-08-28T20:15:19.981Z,101127.97
2022-08-28T20:17:50.423Z,101131.13
2022-08-28T20:20:21.116Z,101135.94
2022-08-28T20:26:25.523Z,101141.81
2022-08-28T20:28:58.209Z,101147.78
2022-08-28T20:31:28.968Z,101152.69
2022-08-28T20:33:58.769Z,101152.97
2022-08-28T20:36:28.441Z,101158.66
2022-08-28T20:39:00.964Z,101158.19
2022-08-28T20:41:30.763Z,101163.75
2022-08-28T20:44:01.267Z,101165.09
2022-08-28T20:46:33.490Z,101165.41
2022-08-28T20:49:06.221Z,101171.06
2022-08-28T20:51:48.335Z,101174.00
2022-08-28T20:54:21.468Z,101173.91
2022-08-28T20:56:52.182Z,101176.00
2022-08-28T20:59:22.755Z,101180.69
2022-08-28T21:01:53.119Z,101170.25
2022-08-28T21:04:23.901Z,101174.03
2022-08-28T21:06:53.643Z,101176.81
2022-08-28T21:09:35.894Z,101175.28
2022-08-28T21:12:15.966Z,101185.28
2022-08-28T21:14:51.667Z,101191.69
2022-08-28T21:17:28.911Z,101202.34
2022-08-28T21:20:01.744Z,101199.88
2022-08-28T21:22:35.311Z,101204.66
2022-08-28T21:25:09.737Z,101196.94
2022-08-28T21:27:40.261Z,101193.63
2022-08-28T21:30:11.768Z,101197.41
2022-08-28T21:32:41.704Z,101197.72
2022-08-28T21:35:13.832Z,101196.09
2022-08-28T21:37:44.097Z,101197.25
2022-08-28T21:40:17.362Z,101202.75
2022-08-28T21:42:47.046Z,101193.34
2022-08-28T21:45:16.820Z,101196.38
2022-08-28T21:47:46.544Z,101206.34
2022-08-28T21:50:16.756Z,101206.75
2022-08-28T21:52:46.438Z,101210.44
2022-08-28T21:55:19.154Z,101213.41
2022-08-28T21:57:48.810Z,101217.19
2022-08-28T22:00:20.944Z,101210.25
2022-08-28T22:02:51.094Z,101219.38
2022-08-28T22:05:21.444Z,101214.16
2022-08-28T22:07:51.137Z,101219.78
2022-08-28T22:10:25.186Z,101215.56
2022-08-28T22:12:55.044Z,101215.00
2022-08-28T22:15:24.735Z,101217.81
2022-08-28T22:17:54.869Z,101217.16
2022-08-28T22:20:24.602Z,101215.59
2022-08-28T22:23:06.693Z,101215.88
2022-08-28T22:25:41.064Z,101210.81
2022-08-28T22:28:11.683Z,101220.78
2022-08-28T22:30:41.368Z,101221.06
2022-08-28T22:33:11.874Z,101219.44
2022-08-28T22:35:41.746Z,101219.69
2022-08-28T22:38:11.484Z,101221.69
2022-08-28T22:40:43.975Z,101220.13
2022-08-28T22:43:13.656Z,101217.91
2022-08-28T22:45:43.572Z,101219.91
2022-08-28T22:48:14.451Z,101210.47
2022-08-28T22:50:44.726Z,101211.59
2022-08-28T22:53:14.884Z,101208.34
2022-08-28T22:55:47.864Z,101200.69
2022-08-28T22:58:17.540Z,101207.31
2022-08-28T23:00:47.307Z,101207.47
2022-08-28T23:03:17.044Z,101207.81
2022-08-28T23:05:46.774Z,101215.22
2022-08-28T23:08:16.504Z,101211.94
2022-08-28T23:10:58.976Z,101211.28
2022-08-28T23:13:29.374Z,101215.22
2022-08-28T23:15:59.151Z,101209.25
2022-08-28T23:18:28.968Z,101205.13
2022-08-28T23:20:59.400Z,101208.91
2022-08-28T23:23:29.332Z,101205.63
2022-08-28T23:26:01.602Z,101202.38
2022-08-28T23:28:31.350Z,101197.28
2022-08-28T23:31:01.041Z,101200.19
2022-08-28T23:33:30.757Z,101212.72
2022-08-28T23:36:00.446Z,101205.13
2022-08-28T23:38:30.237Z,101200.94
2022-08-28T23:41:02.994Z,101201.19
2022-08-28T23:43:32.671Z,101198.69
2022-08-28T23:46:02.632Z,101190.09
2022-08-28T23:48:32.368Z,101187.75
2022-08-28T23:51:02.177Z,101188.78
2022-08-28T23:53:32.358Z,101191.66
2022-08-28T23:56:08.164Z,101194.59
2022-08-28T23:58:37.972Z,101197.38
